Osby, Sweden

4:05 AM CEST on September 16, 2014 (GMT +0200)
Kristianstad | Change Station
CLOSE
Current Station
Personal Weather Station
Location: Kristianstad, SKANE
Elevation: 33 ft
Nearby Weather Stations

Elev 33 ft 56.03 °N, 14.05 °E | Updated 5 minutes ago

Overcast
Overcast
53.6 °F
Feels Like 53.6 °F
N
1.6
Wind Variable Wind from North
Gusts 3.1 mph

Today
High -- | Low -- °F
--% Chance of Precip.
Yesterday
High -- | Low -- °F
Precip. -- in
6:36 AM 7:19 PM
Waning Gibbous, 50% visible
Pressure 30.27 in
Visibility 6.2 miles
Clouds Overcast 1100 ft
Dew Point 53 °F
Humidity 97%
Rainfall 0.00 in
Snow Depth Not available.
UV 0 out of 12
Pollen Not available.
Air Quality Not available.
Flu Activity Not available.
METAR ESTL 160150Z AUTO 11005KT 9999NDV OVC011/// 11/10 Q1025

More Conditions Fewer Conditions

Pressure 30.27 in
Visibility 6.2 miles
Clouds Overcast 1100 ft
Dew Point 53 °F
Humidity 97%
Rainfall 0.00 in
Snow Depth Not available.
UV 0 out of 12
Pollen Not available.
Air Quality Not available.
Flu Activity Not available.
METAR ESTL 160150Z AUTO 11005KT 9999NDV OVC011/// 11/10 Q1025

More Conditions Fewer Conditions

10-Day Weather Forecast

Almanac

Astronomy

Sep. 16, 2014 Rise Set
Actual Time 6:36 AM CEST 7:19 PM CEST
Civil Twilight 5:58 AM CEST 7:57 PM CEST
Nautical Twilight 5:12 AM CEST 8:43 PM CEST
Astronomical Twilight 4:22 AM CEST 9:32 PM CEST
Moon 11:35 PM CEST 3:18 PM CEST
Length of Visible Light 13h 58m
Length of Day
12h 42m
Tomorrow will be 4m 40s shorter.
Waning Gibbous, 50% of the Moon is Illuminated
Sep 15
Waning Gibbous
Sep 15
Last Quarter
Sep 24
New
Oct 1
First Quarter
Oct 8
Full

Yesterday's Extremes

Country Highs Country Lows

Community

WunderPhotos

Upload Photos

1,753,650 photos uploaded!

WunderBlogs® & News

Nearby

Snow Depth

Not available.

Earthquake Activity

City Distance Mag. Time & Date
No recent earthquake activity has been reported nearby.
Minimum magnitude displayed is 2.5.

Coastal Water Temperatures

Place Temperature
No Stations Reporting

Nearby Weather Stations